Time;durP1;ratioP1;P1;durP2;ratioP2;P2;SDS_P1;SDS_P2;PMS_P1;PMS_P2;Temp;Humidity;BMP_temperature;BMP_pressure;BME280_temperature;BME280_humidity;BME280_pressure;Samples;Min_cycle;Max_cycle;Signal;HPM_P1;HPM_P2
2022/02/12 00:00:12;;;;;;;12.63;7.65;;;8.30;62.30;;;;;;5084723;28;20032;-63
2022/02/12 00:02:39;;;;;;;14.35;7.47;;;8.20;62.40;;;;;;5086103;28;20017;-63
2022/02/12 00:05:06;;;;;;;11.32;6.40;;;8.20;62.20;;;;;;5088000;28;20566;-63
2022/02/12 00:07:32;;;;;;;9.00;6.10;;;8.20;62.40;;;;;;5068312;28;20100;-63
2022/02/12 00:09:57;;;;;;;11.45;7.25;;;8.10;62.30;;;;;;5085072;28;20119;-63
2022/02/12 00:12:26;;;;;;;11.23;6.60;;;8.10;62.80;;;;;;5084985;28;20024;-63
2022/02/12 00:14:52;;;;;;;11.48;6.75;;;8.00;63.00;;;;;;5048360;28;20057;-63
2022/02/12 00:17:18;;;;;;;12.20;6.75;;;8.00;62.80;;;;;;5048514;28;20490;-63
2022/02/12 00:19:43;;;;;;;11.48;7.30;;;8.00;62.60;;;;;;5047695;28;20104;-63
2022/02/12 00:22:09;;;;;;;14.07;7.35;;;8.00;62.80;;;;;;5045008;28;20021;-63
2022/02/12 00:24:35;;;;;;;11.95;6.82;;;7.90;63.00;;;;;;5040848;28;20124;-63
2022/02/12 00:27:00;;;;;;;10.30;5.60;;;7.80;63.30;;;;;;5035499;28;20454;-63
2022/02/12 00:29:26;;;;;;;10.52;6.18;;;7.80;63.30;;;;;;5079779;28;20033;-63
2022/02/12 00:31:52;;;;;;;10.65;6.15;;;7.80;63.20;;;;;;5034114;28;20025;-63
2022/02/12 00:34:17;;;;;;;9.85;5.70;;;7.70;63.50;;;;;;5046173;28;20113;-63
2022/02/12 00:36:43;;;;;;;8.82;5.60;;;7.70;63.20;;;;;;5039528;28;20069;-63
2022/02/12 00:39:13;;;;;;;12.10;6.03;;;7.60;63.20;;;;;;5036727;28;20021;-63
2022/02/12 00:41:39;;;;;;;12.65;6.22;;;7.60;64.00;;;;;;5045787;28;20075;-63
2022/02/12 00:44:05;;;;;;;11.60;5.78;;;7.60;63.80;;;;;;5047768;28;20036;-63
2022/02/12 00:46:31;;;;;;;10.15;6.15;;;7.60;64.10;;;;;;5035835;28;20037;-63
2022/02/12 00:48:57;;;;;;;10.43;5.75;;;7.60;63.90;;;;;;5036243;28;20021;-63
2022/02/12 00:51:22;;;;;;;9.88;5.25;;;7.50;64.10;;;;;;5038048;28;20033;-63
2022/02/12 00:53:48;;;;;;;10.75;5.55;;;7.50;64.10;;;;;;5047964;28;20100;-63
2022/02/12 00:56:14;;;;;;;11.32;5.47;;;7.50;64.10;;;;;;5048947;28;20032;-63
2022/02/12 00:58:40;;;;;;;8.48;5.43;;;7.50;64.30;;;;;;5046925;28;20025;-63
2022/02/12 01:01:05;;;;;;;10.90;5.43;;;7.40;64.30;;;;;;5044206;28;20036;-63
2022/02/12 01:03:31;;;;;;;9.38;5.22;;;7.30;64.20;;;;;;5040206;28;20494;-63
2022/02/12 01:05:57;;;;;;;7.95;4.90;;;7.30;63.60;;;;;;5034824;28;20041;-63
2022/02/12 01:08:23;;;;;;;7.80;4.75;;;7.30;64.50;;;;;;5047333;28;20517;-63
2022/02/12 01:10:49;;;;;;;8.95;5.20;;;7.30;65.00;;;;;;5033750;28;20087;-63
2022/02/12 01:13:15;;;;;;;10.48;5.13;;;7.20;64.70;;;;;;5044875;28;20025;-63
2022/02/12 01:15:40;;;;;;;8.57;5.07;;;7.20;64.60;;;;;;5084328;28;20043;-63
2022/02/12 01:18:07;;;;;;;10.77;4.65;;;7.10;64.90;;;;;;5065886;28;20103;-63
2022/02/12 01:20:34;;;;;;;8.90;4.80;;;7.20;64.80;;;;;;5088112;28;20031;-63
2022/02/12 01:23:01;;;;;;;7.32;4.90;;;7.10;64.70;;;;;;5091638;28;20024;-63
2022/02/12 01:25:27;;;;;;;8.25;4.80;;;7.00;65.30;;;;;;5079079;28;20036;-63
2022/02/12 01:27:53;;;;;;;9.45;4.53;;;6.90;64.70;;;;;;5079464;28;20378;-63
2022/02/12 01:30:19;;;;;;;9.98;4.60;;;6.80;65.50;;;;;;5081132;28;20027;-63
2022/02/12 01:32:45;;;;;;;11.25;4.72;;;6.80;66.10;;;;;;5090784;28;20024;-63
2022/02/12 01:35:12;;;;;;;8.20;4.45;;;6.70;66.70;;;;;;5083667;28;20074;-63
2022/02/12 01:37:39;;;;;;;9.25;4.50;;;6.70;65.30;;;;;;5078472;28;20017;-63
2022/02/12 01:40:06;;;;;;;9.73;4.50;;;6.70;66.10;;;;;;5087040;28;20582;-63
2022/02/12 01:42:32;;;;;;;8.55;4.18;;;6.80;65.50;;;;;;5087810;28;20020;-63
2022/02/12 01:45:01;;;;;;;8.50;4.38;;;6.70;65.80;;;;;;5087304;28;20051;-63
2022/02/12 01:47:27;;;;;;;8.30;4.05;;;6.70;65.90;;;;;;5090183;28;20120;-63
2022/02/12 01:49:53;;;;;;;8.00;4.20;;;6.80;66.00;;;;;;5076296;28;20031;-63
2022/02/12 01:52:20;;;;;;;9.40;4.13;;;6.90;66.10;;;;;;5088943;28;20024;-63
2022/02/12 01:54:47;;;;;;;7.45;3.92;;;7.00;65.60;;;;;;5070428;28;20028;-63
2022/02/12 01:57:12;;;;;;;8.25;4.30;;;7.00;65.50;;;;;;5086982;28;20020;-63
2022/02/12 01:59:40;;;;;;;8.25;3.72;;;7.00;65.40;;;;;;5088103;28;20051;-63
2022/02/12 02:02:06;;;;;;;7.82;4.20;;;6.90;65.60;;;;;;5090623;28;20020;-63
2022/02/12 02:04:33;;;;;;;7.50;3.38;;;6.90;65.20;;;;;;5089193;28;20139;-63
2022/02/12 02:06:59;;;;;;;8.23;3.88;;;6.90;65.70;;;;;;5086968;28;20073;-63
2022/02/12 02:09:26;;;;;;;6.97;3.33;;;6.90;65.80;;;;;;5086808;28;20031;-63
2022/02/12 02:11:52;;;;;;;6.00;3.30;;;6.90;65.70;;;;;;5089298;28;20505;-63
2022/02/12 02:14:18;;;;;;;6.57;3.50;;;6.90;65.70;;;;;;5075312;28;20063;-63
2022/02/12 02:16:45;;;;;;;9.70;3.63;;;7.00;65.60;;;;;;5089511;28;20024;-63
2022/02/12 02:19:13;;;;;;;6.43;3.70;;;7.00;65.50;;;;;;5087819;28;20032;-63
2022/02/12 02:21:39;;;;;;;7.50;3.55;;;6.90;65.40;;;;;;5082389;28;20140;-63
2022/02/12 02:24:06;;;;;;;7.47;3.40;;;6.80;65.70;;;;;;5078179;28;20032;-63
2022/02/12 02:26:33;;;;;;;7.30;3.78;;;6.80;65.80;;;;;;5090112;28;20412;-63
2022/02/12 02:28:59;;;;;;;6.43;3.72;;;6.90;65.90;;;;;;5074964;28;20029;-63
2022/02/12 02:31:25;;;;;;;6.32;3.70;;;6.90;65.80;;;;;;5088265;28;20047;-64
2022/02/12 02:33:50;;;;;;;5.88;3.30;;;6.90;66.20;;;;;;5086772;28;20060;-63
2022/02/12 02:36:16;;;;;;;5.97;3.15;;;6.90;65.80;;;;;;5085399;28;20024;-63
2022/02/12 02:38:43;;;;;;;4.78;2.95;;;6.80;65.70;;;;;;5075352;28;20480;-63
2022/02/12 02:41:09;;;;;;;6.38;3.33;;;6.70;65.70;;;;;;5090720;28;20051;-64
2022/02/12 02:43:35;;;;;;;7.82;3.38;;;6.70;65.80;;;;;;5077459;28;20021;-63
2022/02/12 02:46:00;;;;;;;6.75;3.42;;;6.80;66.10;;;;;;5077194;28;20051;-63
2022/02/12 02:48:26;;;;;;;6.70;3.50;;;6.80;65.60;;;;;;5080526;28;20035;-64
2022/02/12 02:56:25;;;;;;;5.40;3.22;;;6.80;65.70;;;;;;5033588;28;20040;-63
2022/02/12 02:58:59;;;;;;;7.72;3.10;;;6.90;65.80;;;;;;5032125;28;20030;-63
2022/02/12 03:01:25;;;;;;;7.85;3.55;;;6.90;65.60;;;;;;5048091;28;20033;-63
2022/02/12 03:03:52;;;;;;;6.07;3.17;;;6.80;65.50;;;;;;5043921;28;20111;-63
2022/02/12 03:06:20;;;;;;;7.80;3.08;;;6.80;65.70;;;;;;5042054;28;20440;-64
2022/02/12 03:08:47;;;;;;;6.43;3.10;;;6.80;65.60;;;;;;5032922;28;20112;-64
2022/02/12 03:11:15;;;;;;;7.57;3.47;;;6.80;65.60;;;;;;5048399;28;20063;-63
2022/02/12 03:13:42;;;;;;;7.57;3.38;;;6.80;65.40;;;;;;5045738;28;20037;-63
2022/02/12 03:16:08;;;;;;;8.20;3.58;;;6.80;65.50;;;;;;5043388;28;20032;-63
2022/02/12 03:18:38;;;;;;;7.13;3.33;;;6.80;65.50;;;;;;5043510;28;20095;-64
2022/02/12 03:21:04;;;;;;;7.72;3.85;;;6.80;66.30;;;;;;5043477;28;20112;-63
2022/02/12 03:23:30;;;;;;;7.78;3.33;;;6.70;65.30;;;;;;5045910;28;20113;-63
2022/02/12 03:25:55;;;;;;;6.00;3.00;;;6.60;65.20;;;;;;5046032;28;20044;-63
2022/02/12 03:28:21;;;;;;;7.28;3.70;;;6.60;65.50;;;;;;5044971;28;20087;-63
2022/02/12 03:30:48;;;;;;;8.43;3.20;;;6.60;65.50;;;;;;5058149;28;20090;-63
2022/02/12 03:33:15;;;;;;;6.63;3.38;;;6.60;65.20;;;;;;5078190;28;20028;-63
2022/02/12 03:35:41;;;;;;;6.53;3.05;;;6.50;65.00;;;;;;5088753;28;20032;-63
2022/02/12 03:38:11;;;;;;;5.80;2.97;;;6.60;65.40;;;;;;5073258;28;20150;-64
2022/02/12 03:40:39;;;;;;;7.57;3.58;;;6.60;65.70;;;;;;5076178;28;20489;-63
2022/02/12 03:43:05;;;;;;;5.97;3.30;;;6.50;65.30;;;;;;5075954;28;20055;-64
2022/02/12 03:45:32;;;;;;;9.35;3.83;;;6.50;65.70;;;;;;5079946;28;20047;-63
2022/02/12 03:47:58;;;;;;;6.05;3.25;;;6.40;65.80;;;;;;5085326;28;20028;-63
2022/02/12 03:50:23;;;;;;;6.22;3.05;;;6.30;65.90;;;;;;5088584;28;20103;-63
2022/02/12 03:52:52;;;;;;;7.45;3.53;;;6.30;66.00;;;;;;5088022;28;20048;-63
2022/02/12 03:55:17;;;;;;;8.52;3.08;;;6.10;66.10;;;;;;5087971;28;20070;-63
2022/02/12 03:57:44;;;;;;;5.57;3.80;;;6.10;66.40;;;;;;5085136;28;20032;-64
2022/02/12 04:00:11;;;;;;;9.38;2.95;;;6.10;66.60;;;;;;5084344;28;20016;-63
2022/02/12 04:02:38;;;;;;;6.72;3.35;;;6.10;66.70;;;;;;5074950;28;20016;-63
2022/02/12 04:05:04;;;;;;;5.60;3.67;;;6.00;66.60;;;;;;5072843;28;20036;-63
2022/02/12 04:07:30;;;;;;;5.55;3.40;;;6.10;66.80;;;;;;5087212;28;20042;-63
2022/02/12 04:09:55;;;;;;;7.38;3.58;;;6.10;66.90;;;;;;5083101;28;20484;-63
2022/02/12 04:12:21;;;;;;;6.53;3.45;;;6.00;66.70;;;;;;5084859;28;20035;-63
2022/02/12 04:14:47;;;;;;;5.45;3.50;;;6.00;66.90;;;;;;5084490;28;20528;-63
2022/02/12 04:17:12;;;;;;;8.35;3.40;;;6.00;67.10;;;;;;5089807;28;20028;-63
2022/02/12 04:19:38;;;;;;;6.82;3.22;;;6.00;67.10;;;;;;5087173;28;20480;-63
2022/02/12 04:22:03;;;;;;;7.68;3.60;;;6.10;66.90;;;;;;5084917;28;20082;-63
2022/02/12 04:24:29;;;;;;;7.60;3.92;;;6.10;67.00;;;;;;5081542;28;20552;-63
2022/02/12 04:26:55;;;;;;;9.18;3.35;;;6.00;66.80;;;;;;5074111;28;20545;-63
2022/02/12 04:29:21;;;;;;;6.28;3.58;;;6.00;66.90;;;;;;5088231;28;20020;-63
2022/02/12 04:31:46;;;;;;;6.20;3.17;;;6.00;66.80;;;;;;5086944;28;20111;-63
2022/02/12 04:34:12;;;;;;;5.30;3.25;;;6.00;66.70;;;;;;5101409;28;20024;-63
2022/02/12 04:36:38;;;;;;;9.15;4.03;;;6.00;66.80;;;;;;5080551;28;20024;-64
2022/02/12 04:39:03;;;;;;;9.20;4.47;;;5.90;66.60;;;;;;5076023;28;20036;-63
2022/02/12 04:41:29;;;;;;;7.68;3.95;;;5.90;66.80;;;;;;5085590;28;20017;-63
2022/02/12 04:43:55;;;;;;;7.85;4.03;;;5.90;66.80;;;;;;5087585;28;20067;-63
2022/02/12 04:46:21;;;;;;;7.05;3.88;;;5.90;66.50;;;;;;5086639;28;20115;-63
2022/02/12 04:48:49;;;;;;;6.68;3.80;;;5.90;66.60;;;;;;5079624;28;20032;-63
2022/02/12 04:51:17;;;;;;;6.53;3.88;;;5.90;66.60;;;;;;5077268;28;20035;-63
2022/02/12 04:53:44;;;;;;;8.52;4.72;;;5.90;67.00;;;;;;5086332;28;20511;-63
2022/02/12 04:56:09;;;;;;;7.78;4.15;;;5.80;66.80;;;;;;5091586;28;20481;-63
2022/02/12 04:58:35;;;;;;;6.00;3.70;;;5.70;66.60;;;;;;5079898;28;20029;-64
2022/02/12 05:01:01;;;;;;;7.18;3.42;;;5.70;67.60;;;;;;5087682;28;20032;-63
2022/02/12 05:03:26;;;;;;;8.43;3.40;;;5.70;67.40;;;;;;5086102;28;20431;-63
2022/02/12 05:05:52;;;;;;;6.50;3.58;;;5.70;67.50;;;;;;5077978;28;20052;-63
2022/02/12 05:08:18;;;;;;;6.82;3.90;;;5.70;67.70;;;;;;5092517;28;20024;-63
2022/02/12 05:10:44;;;;;;;6.20;3.55;;;5.60;67.50;;;;;;5090902;28;20035;-64
2022/02/12 05:13:09;;;;;;;7.30;3.53;;;5.60;68.00;;;;;;5067500;28;20017;-63
2022/02/12 05:15:35;;;;;;;8.43;4.30;;;5.50;67.50;;;;;;5083387;28;20130;-63
2022/02/12 05:18:01;;;;;;;7.30;3.67;;;5.50;68.10;;;;;;5089474;28;20024;-63
2022/02/12 05:20:26;;;;;;;6.03;3.63;;;5.50;68.10;;;;;;5077120;28;20051;-63
2022/02/12 05:22:52;;;;;;;5.40;3.50;;;5.60;68.00;;;;;;5077440;28;20017;-63
2022/02/12 05:25:18;;;;;;;6.95;3.50;;;5.60;68.10;;;;;;5088966;28;20032;-64
2022/02/12 05:27:46;;;;;;;5.88;3.95;;;5.60;67.90;;;;;;5083216;28;20029;-63
2022/02/12 05:30:12;;;;;;;5.25;3.38;;;5.50;67.70;;;;;;5080373;28;20031;-63
2022/02/12 05:32:37;;;;;;;6.13;3.55;;;5.50;67.80;;;;;;5089332;28;20027;-63
2022/02/12 05:35:03;;;;;;;7.22;3.70;;;5.50;67.80;;;;;;5091571;28;20041;-63
2022/02/12 05:37:29;;;;;;;7.30;3.75;;;5.50;67.70;;;;;;5079267;28;20050;-63
2022/02/12 05:39:55;;;;;;;5.78;3.45;;;5.50;67.60;;;;;;5085685;28;20032;-63
2022/02/12 05:42:20;;;;;;;7.90;3.58;;;5.50;67.70;;;;;;5086104;28;20025;-62
2022/02/12 05:44:47;;;;;;;6.75;3.47;;;5.50;67.30;;;;;;5076628;28;20369;-63
2022/02/12 05:47:13;;;;;;;7.50;3.65;;;5.40;67.60;;;;;;5074907;28;20054;-63
2022/02/12 05:49:38;;;;;;;8.38;3.85;;;5.50;67.80;;;;;;5078756;28;20024;-63
2022/02/12 05:52:04;;;;;;;7.30;4.00;;;5.40;67.50;;;;;;5087059;28;20024;-63
2022/02/12 05:54:30;;;;;;;5.38;3.22;;;5.40;67.80;;;;;;5087581;28;20024;-63
2022/02/12 05:56:55;;;;;;;6.53;3.70;;;5.40;67.80;;;;;;5087705;28;20020;-63
2022/02/12 05:59:21;;;;;;;6.65;3.60;;;5.30;67.40;;;;;;5091340;28;20111;-63
2022/02/12 06:01:47;;;;;;;6.85;3.88;;;5.30;67.80;;;;;;5090163;28;20557;-63
2022/02/12 06:04:13;;;;;;;8.30;3.55;;;5.30;67.80;;;;;;5088385;28;20043;-63
2022/02/12 06:06:38;;;;;;;6.20;3.30;;;5.30;67.90;;;;;;5082646;28;20033;-63
2022/02/12 06:09:04;;;;;;;6.60;3.30;;;5.30;67.90;;;;;;5078086;28;20024;-63
2022/02/12 06:11:30;;;;;;;8.30;3.55;;;5.30;67.90;;;;;;5090060;28;20054;-63
2022/02/12 06:13:55;;;;;;;8.45;3.72;;;5.40;67.90;;;;;;5090003;28;20044;-63
2022/02/12 06:16:22;;;;;;;5.25;3.17;;;5.40;67.80;;;;;;5089223;28;20496;-63
2022/02/12 06:18:48;;;;;;;5.65;3.08;;;5.40;67.70;;;;;;5087343;28;20024;-63
2022/02/12 06:21:14;;;;;;;6.18;3.10;;;5.40;67.70;;;;;;5101872;28;20554;-63
2022/02/12 06:23:40;;;;;;;5.45;3.28;;;5.40;67.40;;;;;;5075682;28;20066;-63
2022/02/12 06:26:07;;;;;;;4.97;3.15;;;5.40;67.40;;;;;;5090976;28;20040;-63
2022/02/12 06:28:34;;;;;;;7.43;3.10;;;5.40;67.50;;;;;;5089333;28;20038;-63
2022/02/12 06:31:01;;;;;;;5.95;2.88;;;5.30;67.20;;;;;;5087043;28;20064;-63
2022/02/12 06:33:28;;;;;;;6.82;3.35;;;5.30;67.50;;;;;;5086851;28;20082;-63
2022/02/12 06:35:54;;;;;;;7.15;3.10;;;5.30;67.70;;;;;;5088971;28;20028;-63
2022/02/12 06:38:20;;;;;;;6.07;3.20;;;5.20;67.60;;;;;;5074657;28;20467;-63
2022/02/12 06:40:46;;;;;;;5.88;3.22;;;5.30;67.60;;;;;;5076790;28;20027;-63
2022/02/12 06:43:11;;;;;;;5.43;3.47;;;5.20;67.50;;;;;;5087647;28;20066;-63
2022/02/12 06:45:39;;;;;;;6.93;3.25;;;5.20;67.50;;;;;;5082334;28;20096;-63
2022/02/12 06:48:05;;;;;;;6.28;3.22;;;5.20;67.60;;;;;;5077733;28;20070;-63
2022/02/12 06:50:31;;;;;;;6.18;3.30;;;5.10;67.50;;;;;;5089071;28;20059;-63
2022/02/12 06:52:57;;;;;;;5.70;3.20;;;5.10;68.00;;;;;;5089456;28;20016;-63
2022/02/12 06:55:23;;;;;;;6.25;3.60;;;5.10;67.90;;;;;;5077619;28;20124;-63
2022/02/12 06:57:50;;;;;;;7.90;3.30;;;5.10;67.60;;;;;;5083618;28;20502;-63
2022/02/12 07:00:16;;;;;;;5.90;3.58;;;5.00;67.30;;;;;;5084991;28;20473;-63
2022/02/12 07:02:42;;;;;;;5.63;3.00;;;5.00;67.60;;;;;;5074979;28;20507;-63
2022/02/12 07:05:07;;;;;;;7.85;3.97;;;4.90;67.60;;;;;;5090300;28;20028;-63
2022/02/12 07:07:44;;;;;;;6.43;2.95;;;4.90;68.10;;;;;;5088093;28;20031;-63
2022/02/12 07:10:09;;;;;;;6.45;3.80;;;4.80;67.90;;;;;;5078167;28;20405;-63
2022/02/12 07:12:35;;;;;;;6.97;3.35;;;4.80;68.20;;;;;;5081405;28;20024;-63
2022/02/12 07:15:01;;;;;;;5.90;3.42;;;4.70;68.00;;;;;;5086498;28;20510;-63
2022/02/12 07:17:26;;;;;;;5.07;2.95;;;4.60;68.00;;;;;;5073625;28;20032;-63
2022/02/12 07:19:52;;;;;;;5.53;3.17;;;4.50;68.40;;;;;;5074740;28;20550;-63
2022/02/12 07:22:24;;;;;;;7.53;3.47;;;4.50;68.30;;;;;;5086801;28;20392;-63
2022/02/12 07:24:49;;;;;;;6.88;3.20;;;4.50;68.90;;;;;;5080085;28;20087;-63
2022/02/12 07:27:15;;;;;;;6.82;3.40;;;4.50;69.00;;;;;;5077976;28;20106;-63
2022/02/12 07:29:41;;;;;;;7.05;3.55;;;4.50;68.90;;;;;;5087025;28;20714;-63
2022/02/12 07:32:07;;;;;;;5.70;3.42;;;4.60;69.20;;;;;;5089233;28;20020;-63
2022/02/12 07:34:32;;;;;;;5.90;3.35;;;4.70;69.20;;;;;;5076679;28;20566;-63
2022/02/12 07:36:58;;;;;;;6.63;3.15;;;4.80;69.30;;;;;;5083793;28;20032;-63
2022/02/12 07:39:25;;;;;;;7.00;3.30;;;4.90;69.20;;;;;;5099042;28;20036;-63
2022/02/12 07:41:50;;;;;;;4.95;2.97;;;5.00;69.10;;;;;;5077612;28;20511;-63
2022/02/12 07:44:16;;;;;;;7.03;3.00;;;5.10;68.90;;;;;;5074127;28;20029;-63
2022/02/12 07:46:42;;;;;;;5.63;3.10;;;5.20;68.40;;;;;;5088297;28;20036;-68
2022/02/12 07:49:07;;;;;;;5.32;3.22;;;5.40;68.50;;;;;;5102282;27;20518;-67
2022/02/12 07:51:33;;;;;;;6.40;3.22;;;5.50;68.50;;;;;;5070160;28;20029;-68
2022/02/12 07:53:59;;;;;;;5.82;2.90;;;5.70;68.10;;;;;;5074492;28;20382;-67
2022/02/12 07:56:24;;;;;;;7.32;2.95;;;5.80;68.10;;;;;;5074572;28;20405;-68
2022/02/12 07:58:52;;;;;;;5.65;3.20;;;6.00;67.70;;;;;;5074961;28;20124;-68
2022/02/12 08:01:18;;;;;;;5.13;3.20;;;6.10;67.10;;;;;;5086554;28;20091;-68
2022/02/12 08:03:44;;;;;;;7.90;3.55;;;6.20;67.00;;;;;;5084921;28;20499;-67
2022/02/12 08:07:27;;;;;;;6.32;3.63;;;6.30;66.50;;;;;;5085032;28;20032;-67
2022/02/12 08:08:55;;;;;;;3.80;2.70;;;6.40;66.10;;;;;;5085129;28;20024;-68
2022/02/12 08:11:26;;;;;;;5.05;3.10;;;6.50;66.50;;;;;;5088684;28;20024;-68
2022/02/12 08:13:52;;;;;;;6.10;3.20;;;6.80;66.60;;;;;;5074695;28;20486;-69
2022/02/12 08:16:19;;;;;;;6.45;3.50;;;6.80;65.50;;;;;;5077205;28;20021;-65
2022/02/12 08:18:45;;;;;;;5.25;3.17;;;6.90;65.40;;;;;;5097352;28;20506;-64
2022/02/12 08:21:10;;;;;;;5.30;3.47;;;6.90;65.40;;;;;;5102876;28;20016;-65
2022/02/12 08:23:36;;;;;;;5.72;3.08;;;6.90;65.10;;;;;;5096947;28;20016;-66
2022/02/12 08:26:02;;;;;;;6.88;3.28;;;7.10;65.20;;;;;;5107804;28;20035;-66
2022/02/12 08:28:27;;;;;;;7.43;3.38;;;7.20;64.80;;;;;;5113522;28;20030;-66
2022/02/12 08:30:54;;;;;;;6.00;3.00;;;7.40;64.70;;;;;;5110239;28;20035;-70
2022/02/12 08:33:20;;;;;;;6.90;3.80;;;7.50;64.70;;;;;;5109836;28;20016;-67
2022/02/12 08:35:46;;;;;;;4.35;2.97;;;7.40;63.10;;;;;;5091435;28;20024;-65
2022/02/12 08:38:11;;;;;;;5.22;3.45;;;7.40;63.10;;;;;;5078667;28;20105;-65
2022/02/12 08:40:37;;;;;;;5.90;3.33;;;7.20;63.10;;;;;;5103163;28;20046;-65
2022/02/12 08:43:03;;;;;;;6.93;3.33;;;7.40;64.10;;;;;;5082902;28;20083;-65
2022/02/12 08:45:29;;;;;;;6.80;3.35;;;7.30;63.10;;;;;;5082767;28;20049;-65
2022/02/12 08:47:55;;;;;;;9.00;3.55;;;7.50;64.30;;;;;;5095069;28;20017;-65
2022/02/12 08:50:20;;;;;;;6.35;3.50;;;7.50;63.20;;;;;;5093349;28;20034;-65
2022/02/12 08:52:47;;;;;;;5.40;3.28;;;7.70;63.00;;;;;;5083082;28;20389;-65
2022/02/12 08:55:13;;;;;;;6.03;3.80;;;7.80;62.50;;;;;;5099894;28;20024;-65
2022/02/12 08:57:39;;;;;;;8.20;3.67;;;7.80;62.20;;;;;;5100639;28;20499;-65
2022/02/12 09:00:07;;;;;;;6.20;3.60;;;8.00;62.90;;;;;;5102241;28;20102;-65
2022/02/12 09:02:33;;;;;;;6.05;3.20;;;8.30;62.80;;;;;;5099199;28;20024;-65
2022/02/12 09:04:58;;;;;;;5.88;3.22;;;8.50;62.40;;;;;;5096476;28;20047;-65
2022/02/12 09:07:24;;;;;;;7.68;3.30;;;8.60;61.50;;;;;;5099341;28;20158;-65
2022/02/12 09:09:50;;;;;;;5.28;3.00;;;8.90;62.70;;;;;;5101091;28;20039;-65
2022/02/12 09:12:17;;;;;;;5.40;2.70;;;9.30;61.40;;;;;;5099666;28;20024;-65
2022/02/12 09:14:43;;;;;;;7.32;2.88;;;9.80;61.90;;;;;;5100297;28;20036;-65
2022/02/12 09:17:09;;;;;;;8.60;3.05;;;10.00;61.00;;;;;;5096452;28;20450;-65
2022/02/12 09:19:35;;;;;;;5.05;3.20;;;10.20;61.00;;;;;;5102458;28;20085;-65
2022/02/12 09:22:01;;;;;;;4.30;2.63;;;10.60;61.10;;;;;;5100609;28;20032;-65
2022/02/12 09:24:27;;;;;;;6.00;2.80;;;10.70;58.80;;;;;;5100675;28;20077;-65
2022/02/12 09:26:53;;;;;;;6.55;2.92;;;10.70;58.20;;;;;;5101005;28;20043;-65
2022/02/12 09:29:18;;;;;;;4.35;2.67;;;10.50;55.50;;;;;;5096535;28;20016;-65
2022/02/12 09:31:44;;;;;;;4.53;2.80;;;10.10;55.00;;;;;;5102362;28;20484;-65
2022/02/12 09:34:10;;;;;;;4.65;2.60;;;9.90;56.10;;;;;;5099154;28;20024;-65
2022/02/12 09:36:37;;;;;;;4.97;2.70;;;9.40;55.90;;;;;;5096160;28;20082;-65
2022/02/12 09:39:03;;;;;;;5.40;2.60;;;8.90;56.70;;;;;;5099450;28;20033;-65
2022/02/12 09:41:28;;;;;;;4.75;2.70;;;8.60;57.50;;;;;;5092675;28;20042;-65
2022/02/12 09:43:55;;;;;;;3.42;2.33;;;8.40;58.50;;;;;;5093690;28;20031;-66
2022/02/12 09:46:49;;;;;;;4.75;2.28;;;8.40;59.30;;;;;;5098604;28;20040;-65
2022/02/12 09:49:15;;;;;;;4.88;2.33;;;8.40;59.70;;;;;;5096782;28;20534;-65
2022/02/12 09:51:41;;;;;;;6.00;2.70;;;8.50;60.00;;;;;;5095963;28;20028;-65
2022/02/12 09:54:06;;;;;;;4.90;2.30;;;8.30;59.00;;;;;;5097355;28;20026;-65
2022/02/12 09:56:34;;;;;;;6.40;2.70;;;8.20;59.70;;;;;;5095049;28;20035;-65
2022/02/12 09:59:00;;;;;;;5.32;2.78;;;8.00;59.10;;;;;;5095415;28;20031;-65
2022/02/12 10:01:26;;;;;;;4.80;2.60;;;8.00;59.90;;;;;;5098608;28;20024;-65
2022/02/12 10:03:52;;;;;;;4.03;2.58;;;8.10;61.20;;;;;;5096983;28;20024;-65
2022/02/12 10:06:41;;;;;;;4.32;2.72;;;8.60;63.10;;;;;;5096238;28;20036;-66
2022/02/12 10:09:07;;;;;;;4.63;2.33;;;8.80;60.40;;;;;;5097114;28;20050;-65
2022/02/12 10:11:48;;;;;;;5.00;2.58;;;9.20;60.50;;;;;;5092194;28;20512;-65
2022/02/12 10:14:20;;;;;;;4.78;2.40;;;9.70;61.40;;;;;;5076525;28;20479;-65
2022/02/12 10:16:58;;;;;;;6.00;2.67;;;10.30;61.20;;;;;;5106441;28;20468;-66
2022/02/12 10:19:34;;;;;;;5.68;2.88;;;11.00;60.00;;;;;;5098395;28;20051;-66
2022/02/12 10:22:05;;;;;;;5.50;2.70;;;11.10;57.00;;;;;;5096830;28;20024;-66
2022/02/12 10:24:50;;;;;;;4.35;2.72;;;11.20;56.10;;;;;;5096866;28;20024;-66
2022/02/12 10:27:17;;;;;;;3.60;2.63;;;11.10;55.50;;;;;;5096489;28;20114;-66
2022/02/12 10:29:47;;;;;;;4.68;2.63;;;11.10;54.90;;;;;;5093513;28;20026;-66
2022/02/12 10:32:15;;;;;;;5.90;3.17;;;11.00;53.20;;;;;;5091398;28;20032;-66
2022/02/12 10:34:43;;;;;;;5.43;2.75;;;11.00;52.80;;;;;;5098370;28;20020;-66
2022/02/12 10:37:14;;;;;;;6.45;3.13;;;10.70;53.60;;;;;;5096348;28;20107;-67
2022/02/12 10:39:49;;;;;;;6.53;3.22;;;10.40;53.60;;;;;;5096089;28;20403;-65
2022/02/12 10:42:17;;;;;;;6.05;3.03;;;10.30;54.10;;;;;;5096091;28;20105;-64
2022/02/12 10:44:43;;;;;;;6.20;3.47;;;10.20;53.80;;;;;;5095236;28;20534;-65
2022/02/12 10:47:11;;;;;;;6.03;2.95;;;9.90;53.90;;;;;;5091992;28;20020;-65
2022/02/12 10:49:37;;;;;;;4.45;2.97;;;10.00;55.60;;;;;;5079598;28;20032;-65
2022/02/12 10:52:03;;;;;;;6.38;3.10;;;10.30;56.30;;;;;;5095391;28;20027;-65
2022/02/12 10:54:58;;;;;;;7.55;3.90;;;10.60;55.70;;;;;;5095796;28;20024;-66
2022/02/12 10:57:29;;;;;;;6.90;3.47;;;10.60;54.00;;;;;;5095323;28;20093;-65
2022/02/12 10:59:56;;;;;;;6.13;3.03;;;11.10;54.20;;;;;;5077673;28;20015;-66
2022/02/12 11:02:25;;;;;;;6.10;2.97;;;11.20;53.00;;;;;;5092726;28;20110;-66
2022/02/12 11:04:53;;;;;;;5.50;3.05;;;11.20;52.30;;;;;;5095582;28;20032;-66
2022/02/12 11:07:19;;;;;;;6.10;2.58;;;11.50;52.50;;;;;;5097238;28;20025;-67
2022/02/12 11:09:46;;;;;;;5.70;2.38;;;11.80;53.60;;;;;;5076310;28;20438;-65
2022/02/12 11:12:13;;;;;;;5.35;2.90;;;12.30;55.20;;;;;;5101054;28;20031;-67
2022/02/12 11:14:43;;;;;;;5.90;2.63;;;12.40;52.60;;;;;;5106564;28;20035;-69
2022/02/12 11:17:15;;;;;;;5.10;2.97;;;12.40;51.20;;;;;;5089828;28;20020;-65
2022/02/12 11:19:43;;;;;;;6.03;2.45;;;12.30;50.30;;;;;;5104517;28;20066;-65
2022/02/12 11:22:10;;;;;;;4.38;2.10;;;12.40;50.10;;;;;;5093902;28;20024;-66
2022/02/12 11:24:42;;;;;;;4.38;2.60;;;12.50;49.70;;;;;;5095563;28;20020;-66
2022/02/12 11:27:17;;;;;;;4.63;2.47;;;12.40;50.50;;;;;;5095200;28;20051;-66
2022/02/12 11:29:46;;;;;;;5.40;2.58;;;12.70;52.20;;;;;;5095452;28;20408;-66
2022/02/12 11:32:16;;;;;;;6.38;2.50;;;12.60;48.80;;;;;;5089201;28;20025;-69
2022/02/12 11:35:09;;;;;;;3.65;2.25;;;12.30;49.80;;;;;;5105189;28;20023;-68
2022/02/12 11:37:44;;;;;;;4.25;2.90;;;12.60;53.10;;;;;;5092220;28;20055;-68
2022/02/12 11:40:12;;;;;;;5.13;2.78;;;12.60;50.80;;;;;;5091423;28;20059;-67
2022/02/12 11:42:46;;;;;;;4.63;2.80;;;12.50;49.60;;;;;;5090928;28;20028;-68
2022/02/12 11:45:29;;;;;;;3.58;2.65;;;12.50;50.20;;;;;;5094518;28;20564;-67
2022/02/12 11:48:19;;;;;;;5.15;2.80;;;12.60;49.20;;;;;;5099847;28;20027;-68
2022/02/12 11:50:49;;;;;;;6.18;3.58;;;13.10;50.80;;;;;;5091803;28;20047;-68
2022/02/12 11:53:35;;;;;;;6.22;3.45;;;13.20;50.00;;;;;;5074851;28;20016;-68
2022/02/12 11:56:22;;;;;;;3.38;2.40;;;13.40;51.20;;;;;;5091373;28;20024;-66
2022/02/12 11:59:09;;;;;;;3.65;2.50;;;13.50;50.10;;;;;;5026659;28;20124;-66
2022/02/12 12:01:35;;;;;;;4.22;2.47;;;13.60;50.80;;;;;;5029889;28;20512;-66
2022/02/12 12:04:12;;;;;;;5.53;2.45;;;13.80;49.30;;;;;;5028589;28;20033;-66
2022/02/12 12:07:16;;;;;;;4.47;2.45;;;13.50;47.70;;;;;;5028852;28;20096;-66
2022/02/12 12:09:54;;;;;;;4.82;2.40;;;13.20;50.00;;;;;;5009170;28;20117;-67
2022/02/12 12:12:23;;;;;;;3.72;2.25;;;13.00;49.70;;;;;;5009009;28;20160;-66
2022/02/12 12:15:13;;;;;;;4.05;2.22;;;12.90;50.10;;;;;;5008789;28;20056;-66
2022/02/12 12:17:39;;;;;;;4.20;2.28;;;13.40;50.50;;;;;;5003474;28;20034;-67
2022/02/12 12:20:05;;;;;;;4.72;2.20;;;13.60;51.50;;;;;;5017762;28;20034;-67
2022/02/12 12:22:31;;;;;;;4.18;2.65;;;13.80;50.70;;;;;;5009809;28;20115;-67
2022/02/12 12:24:59;;;;;;;4.68;2.75;;;13.90;50.10;;;;;;5008681;28;20073;-67
2022/02/12 12:27:25;;;;;;;6.43;2.90;;;14.00;48.90;;;;;;5009448;28;20038;-67
2022/02/12 12:32:35;;;;;;;5.10;2.50;;;13.80;48.30;;;;;;5009201;28;20088;-68
2022/02/12 12:35:05;;;;;;;5.10;2.60;;;13.60;49.10;;;;;;5013269;28;20040;-67
2022/02/12 12:37:33;;;;;;;7.45;2.90;;;13.70;48.80;;;;;;5045153;28;20033;-67
2022/02/12 12:40:00;;;;;;;3.97;2.58;;;14.00;49.80;;;;;;5047688;28;20040;-67
2022/02/12 12:42:27;;;;;;;4.80;3.08;;;13.70;46.70;;;;;;5086435;28;20098;-67
2022/02/12 12:45:03;;;;;;;4.95;3.10;;;13.30;47.70;;;;;;5094062;28;20028;-67
2022/02/12 12:47:30;;;;;;;5.38;3.33;;;13.60;48.40;;;;;;5091783;28;20550;-67
2022/02/12 12:49:57;;;;;;;4.57;2.90;;;13.50;47.90;;;;;;5092667;28;20023;-67
2022/02/12 12:52:31;;;;;;;4.28;2.50;;;13.50;47.10;;;;;;5094024;28;20020;-66
2022/02/12 12:55:07;;;;;;;5.25;2.83;;;13.70;47.00;;;;;;5093675;28;20036;-66
2022/02/12 12:57:33;;;;;;;5.28;2.42;;;14.00;48.70;;;;;;5094130;28;20050;-66
2022/02/12 13:00:00;;;;;;;4.68;2.95;;;15.00;49.60;;;;;;5094090;28;20027;-67
2022/02/12 13:02:27;;;;;;;5.55;3.08;;;15.10;46.30;;;;;;5090489;28;20103;-66